Time;durP1;ratioP1;P1;durP2;ratioP2;P2;SDS_P1;SDS_P2;PMS_P1;PMS_P2;Temp;Humidity;BMP_temperature;BMP_pressure;BME280_temperature;BME280_humidity;BME280_pressure;Samples;Min_cycle;Max_cycle;Signal;HPM_P1;HPM_P2
2022/11/25 00:01:16;;;;;;;14.48;4.03;;;8.00;99.90;;;;;;5061031;28;20036;-62
2022/11/25 00:03:43;;;;;;;17.75;4.60;;;8.00;99.90;;;;;;5059096;28;20127;-62
2022/11/25 00:06:18;;;;;;;14.43;3.80;;;8.00;99.90;;;;;;5039737;28;20044;-63
2022/11/25 00:08:45;;;;;;;14.70;3.72;;;8.10;99.90;;;;;;5054860;28;20510;-62
2022/11/25 00:11:12;;;;;;;18.55;4.03;;;8.10;99.90;;;;;;5058131;28;20139;-62
2022/11/25 00:13:39;;;;;;;16.35;4.15;;;8.10;99.90;;;;;;5052590;28;20040;-62
2022/11/25 00:16:10;;;;;;;15.35;4.47;;;8.10;99.90;;;;;;5059188;28;20460;-63
2022/11/25 00:18:37;;;;;;;12.27;3.53;;;8.20;99.90;;;;;;5042249;28;20090;-62
2022/11/25 00:21:08;;;;;;;13.15;4.15;;;8.10;99.90;;;;;;5042274;28;20342;-62
2022/11/25 00:23:35;;;;;;;14.82;4.50;;;8.10;99.90;;;;;;5035233;28;20314;-62
2022/11/25 00:26:07;;;;;;;15.30;4.15;;;8.20;99.90;;;;;;5056602;28;20058;-62
2022/11/25 00:28:33;;;;;;;15.65;3.97;;;8.20;99.90;;;;;;5060182;28;20532;-62
2022/11/25 00:31:09;;;;;;;11.85;4.10;;;8.20;99.90;;;;;;5056705;28;20037;-64
2022/11/25 00:33:36;;;;;;;15.43;4.60;;;8.20;99.90;;;;;;5037159;28;20037;-63
2022/11/25 00:36:04;;;;;;;12.85;3.47;;;8.10;99.90;;;;;;5038374;28;20076;-63
2022/11/25 00:38:30;;;;;;;15.50;3.75;;;8.10;99.90;;;;;;5057718;28;20052;-63
2022/11/25 00:46:24;;;;;;;16.80;4.20;;;8.10;99.90;;;;;;5057399;28;20473;-62
2022/11/25 00:48:50;;;;;;;15.93;4.75;;;8.10;99.90;;;;;;5036563;28;20139;-64
2022/11/25 00:51:16;;;;;;;13.02;4.60;;;8.10;99.90;;;;;;5054520;28;20048;-62
2022/11/25 00:53:41;;;;;;;13.32;3.55;;;8.10;99.90;;;;;;5058275;28;20110;-63
2022/11/25 00:56:13;;;;;;;12.77;3.90;;;8.10;99.90;;;;;;5055883;28;20182;-63
2022/11/25 00:58:40;;;;;;;13.80;3.70;;;8.10;99.90;;;;;;5053186;28;20111;-63
2022/11/25 01:01:05;;;;;;;15.05;4.28;;;8.10;99.90;;;;;;5059348;28;20183;-63
2022/11/25 01:03:31;;;;;;;16.92;4.03;;;8.10;99.90;;;;;;5057004;28;20123;-63
2022/11/25 01:06:00;;;;;;;14.40;4.35;;;8.20;99.90;;;;;;5057970;28;20093;-62
2022/11/25 01:08:28;;;;;;;14.07;4.13;;;8.20;99.90;;;;;;5053345;28;20053;-62
2022/11/25 01:11:02;;;;;;;16.50;4.28;;;8.20;99.90;;;;;;5055454;28;20037;-62
2022/11/25 01:13:28;;;;;;;15.07;3.72;;;8.20;99.90;;;;;;5056404;28;20029;-62
2022/11/25 01:15:54;;;;;;;16.45;4.70;;;8.20;99.90;;;;;;5057101;28;20059;-64
2022/11/25 01:18:19;;;;;;;15.27;3.78;;;8.20;99.90;;;;;;5037322;28;20034;-63
2022/11/25 01:20:45;;;;;;;16.42;4.40;;;8.20;99.90;;;;;;5038746;28;20056;-63
2022/11/25 01:23:10;;;;;;;12.15;3.83;;;8.20;99.90;;;;;;5038970;28;20420;-64
2022/11/25 01:25:37;;;;;;;14.45;4.55;;;8.20;99.90;;;;;;5053913;28;20233;-62
2022/11/25 01:28:03;;;;;;;15.20;5.00;;;8.10;99.90;;;;;;5041885;28;20199;-62
2022/11/25 01:30:29;;;;;;;15.70;4.68;;;8.10;99.90;;;;;;5041989;28;20052;-61
2022/11/25 01:32:56;;;;;;;18.33;4.75;;;8.10;99.90;;;;;;5033285;28;20627;-62
2022/11/25 01:35:21;;;;;;;15.07;4.03;;;8.10;99.90;;;;;;5039919;28;20109;-62
2022/11/25 01:37:47;;;;;;;12.98;3.30;;;8.10;99.90;;;;;;5022112;28;20029;-61
2022/11/25 01:40:13;;;;;;;15.77;3.63;;;8.00;99.90;;;;;;5038206;28;20052;-63
2022/11/25 01:42:46;;;;;;;17.00;4.57;;;8.00;99.90;;;;;;5058153;28;20119;-61
2022/11/25 01:45:21;;;;;;;15.50;4.53;;;8.00;99.90;;;;;;5059478;28;20044;-61
2022/11/25 01:47:47;;;;;;;17.15;4.30;;;8.00;99.90;;;;;;5058414;28;20041;-62
2022/11/25 01:50:16;;;;;;;14.75;3.97;;;8.00;99.90;;;;;;5058649;28;20132;-63
2022/11/25 01:52:47;;;;;;;14.52;4.22;;;8.00;99.90;;;;;;5058219;28;20044;-62
2022/11/25 01:55:23;;;;;;;16.10;4.63;;;8.00;99.90;;;;;;5061392;28;20053;-62
2022/11/25 01:57:54;;;;;;;15.00;4.25;;;8.00;99.90;;;;;;5044063;28;20295;-62
2022/11/25 02:00:20;;;;;;;17.38;4.45;;;8.00;99.90;;;;;;5025021;28;20481;-63
2022/11/25 02:02:49;;;;;;;16.98;4.70;;;8.00;99.90;;;;;;5043498;28;20041;-62
2022/11/25 02:05:18;;;;;;;19.73;4.38;;;8.00;99.90;;;;;;5043325;28;20460;-62
2022/11/25 02:07:47;;;;;;;17.95;4.10;;;8.00;99.90;;;;;;5058352;28;20123;-62
2022/11/25 02:10:20;;;;;;;15.25;4.70;;;8.00;99.90;;;;;;5056831;28;20042;-62
2022/11/25 02:12:47;;;;;;;13.82;4.00;;;8.00;99.90;;;;;;5041705;28;20330;-62
2022/11/25 02:15:14;;;;;;;16.05;4.47;;;8.00;99.90;;;;;;5059308;28;20183;-63
2022/11/25 02:17:41;;;;;;;24.00;5.03;;;8.00;99.90;;;;;;5058369;28;20124;-62
2022/11/25 02:20:14;;;;;;;14.32;4.25;;;8.00;99.90;;;;;;5060672;28;20123;-63
2022/11/25 02:22:55;;;;;;;18.92;4.88;;;8.00;99.90;;;;;;5053041;28;20186;-62
2022/11/25 02:25:33;;;;;;;14.65;4.25;;;8.00;99.90;;;;;;5056748;28;20051;-62
2022/11/25 02:28:18;;;;;;;17.50;4.18;;;8.00;99.90;;;;;;5061387;28;20032;-61
2022/11/25 02:30:44;;;;;;;16.92;5.05;;;8.00;99.90;;;;;;5057987;28;20099;-62
2022/11/25 02:33:10;;;;;;;18.25;5.13;;;7.90;99.90;;;;;;5054946;28;20091;-62
2022/11/25 02:35:38;;;;;;;16.77;4.53;;;8.00;99.90;;;;;;5058868;28;20449;-62
2022/11/25 02:38:09;;;;;;;17.77;4.60;;;8.00;99.90;;;;;;5057778;28;20032;-62
2022/11/25 02:40:42;;;;;;;15.32;4.43;;;8.00;99.90;;;;;;5026067;28;20052;-63
2022/11/25 02:43:08;;;;;;;23.65;4.90;;;8.00;99.90;;;;;;5059630;28;20056;-62
2022/11/25 02:45:48;;;;;;;16.02;4.88;;;8.00;99.90;;;;;;5042451;28;20139;-62
2022/11/25 02:48:14;;;;;;;17.88;4.97;;;8.00;99.90;;;;;;5055956;28;20044;-62
2022/11/25 02:50:40;;;;;;;16.58;4.57;;;8.10;99.90;;;;;;5058105;28;20048;-62
2022/11/25 02:53:06;;;;;;;17.75;4.85;;;8.00;99.90;;;;;;5040115;28;20045;-62
2022/11/25 02:55:31;;;;;;;18.98;5.10;;;8.10;99.90;;;;;;5057861;28;20066;-62
2022/11/25 02:57:57;;;;;;;18.25;4.18;;;8.10;99.90;;;;;;5059480;28;20353;-61
2022/11/25 03:00:23;;;;;;;17.13;4.68;;;8.10;99.90;;;;;;5061052;28;20037;-62
2022/11/25 03:02:52;;;;;;;15.38;4.03;;;8.10;99.90;;;;;;5060755;28;20473;-62
2022/11/25 03:05:17;;;;;;;13.75;3.97;;;8.10;99.90;;;;;;5054639;28;20048;-62
2022/11/25 03:07:43;;;;;;;17.58;4.78;;;8.10;99.90;;;;;;5038641;28;20383;-62
2022/11/25 03:10:09;;;;;;;15.02;3.78;;;8.10;99.90;;;;;;5056030;28;20045;-63
2022/11/25 03:12:34;;;;;;;18.40;4.68;;;8.10;99.90;;;;;;5061381;28;20063;-62
2022/11/25 03:15:00;;;;;;;15.82;4.35;;;8.10;99.90;;;;;;5057625;28;20040;-62
2022/11/25 03:17:26;;;;;;;16.67;4.43;;;8.10;99.90;;;;;;5059846;28;20093;-62
2022/11/25 03:19:51;;;;;;;16.15;5.25;;;8.20;99.90;;;;;;5027525;28;20057;-62
2022/11/25 03:22:17;;;;;;;16.08;4.95;;;8.10;99.90;;;;;;5052669;28;20032;-62
2022/11/25 03:24:42;;;;;;;13.65;4.63;;;8.20;99.90;;;;;;5059473;28;20035;-61
2022/11/25 03:27:08;;;;;;;15.63;4.72;;;8.20;99.90;;;;;;5061148;28;20048;-61
2022/11/25 03:29:33;;;;;;;19.77;4.75;;;8.20;99.90;;;;;;5038940;28;20055;-61
2022/11/25 03:31:59;;;;;;;16.52;4.50;;;8.20;99.90;;;;;;5039822;28;20126;-62
2022/11/25 03:34:25;;;;;;;16.20;4.85;;;8.20;99.90;;;;;;5052087;28;20113;-61
2022/11/25 03:36:50;;;;;;;19.33;4.65;;;8.20;99.90;;;;;;5057593;28;20045;-63
2022/11/25 03:39:16;;;;;;;18.77;5.72;;;8.20;99.90;;;;;;5027148;28;20039;-62
2022/11/25 03:41:41;;;;;;;17.30;4.80;;;8.20;99.90;;;;;;5041923;28;20056;-62
2022/11/25 03:44:07;;;;;;;16.10;4.95;;;8.20;99.90;;;;;;5059484;28;20033;-63
2022/11/25 03:46:32;;;;;;;16.17;4.53;;;8.20;99.90;;;;;;5058570;28;20116;-62
2022/11/25 03:48:58;;;;;;;18.45;5.05;;;8.20;99.90;;;;;;5037813;28;20025;-62
2022/11/25 03:51:24;;;;;;;17.95;4.88;;;8.20;99.90;;;;;;5055423;28;20088;-62
2022/11/25 03:53:49;;;;;;;17.80;4.65;;;8.30;99.90;;;;;;5060914;28;20044;-62
2022/11/25 03:56:15;;;;;;;16.05;4.53;;;8.20;99.90;;;;;;5037940;28;20171;-62
2022/11/25 03:58:41;;;;;;;14.13;4.75;;;8.20;99.90;;;;;;5060113;28;20028;-62
2022/11/25 04:01:07;;;;;;;14.98;4.40;;;8.30;99.90;;;;;;5060864;28;20064;-62
2022/11/25 04:03:32;;;;;;;19.40;4.03;;;8.20;99.90;;;;;;5053203;28;20377;-62
2022/11/25 04:05:58;;;;;;;19.15;5.18;;;8.20;99.90;;;;;;5038211;28;20111;-62
2022/11/25 04:08:24;;;;;;;20.08;5.00;;;8.20;99.90;;;;;;5053387;28;20427;-62
2022/11/25 04:10:50;;;;;;;19.67;5.07;;;8.20;99.90;;;;;;5041016;28;20462;-62
2022/11/25 04:13:15;;;;;;;20.38;5.43;;;8.20;99.90;;;;;;5058144;28;20126;-62
2022/11/25 04:15:46;;;;;;;18.35;4.70;;;8.20;99.90;;;;;;5058374;28;20049;-62
2022/11/25 04:18:15;;;;;;;15.57;5.05;;;8.30;99.90;;;;;;5058679;28;20135;-63
2022/11/25 04:20:41;;;;;;;15.98;4.90;;;8.30;99.90;;;;;;5053505;28;20414;-62
2022/11/25 04:23:08;;;;;;;15.85;4.90;;;8.30;99.90;;;;;;5037632;28;20086;-62
2022/11/25 04:25:35;;;;;;;20.30;5.03;;;8.30;99.90;;;;;;5056582;28;20075;-62
2022/11/25 04:28:01;;;;;;;15.43;4.53;;;8.30;99.90;;;;;;5042632;28;20393;-62
2022/11/25 04:30:28;;;;;;;21.02;4.60;;;8.30;99.90;;;;;;5055155;28;20570;-62
2022/11/25 04:32:54;;;;;;;16.48;4.40;;;8.30;99.90;;;;;;5051756;28;20025;-62
2022/11/25 04:35:20;;;;;;;14.63;4.78;;;8.20;99.90;;;;;;5056370;28;20039;-62
2022/11/25 04:37:46;;;;;;;15.90;4.90;;;8.30;99.90;;;;;;5055611;28;20041;-62
2022/11/25 04:40:12;;;;;;;17.13;4.78;;;8.30;99.90;;;;;;5057095;28;20079;-61
2022/11/25 04:42:38;;;;;;;14.38;4.55;;;8.30;99.90;;;;;;5059669;28;20056;-62
2022/11/25 04:45:10;;;;;;;14.52;4.50;;;8.30;99.90;;;;;;5059311;28;20040;-61
2022/11/25 04:47:36;;;;;;;19.10;4.85;;;8.30;99.90;;;;;;5056015;28;20041;-61
2022/11/25 04:50:04;;;;;;;16.00;5.40;;;8.30;99.90;;;;;;5053677;28;20112;-61
2022/11/25 04:52:32;;;;;;;21.38;5.38;;;8.30;99.90;;;;;;5056759;28;20132;-62
2022/11/25 04:54:58;;;;;;;16.70;4.90;;;8.30;99.90;;;;;;5036764;28;20055;-62
2022/11/25 04:57:24;;;;;;;17.25;4.93;;;8.30;99.90;;;;;;5039027;28;20466;-62
2022/11/25 04:59:50;;;;;;;19.13;5.50;;;8.30;99.90;;;;;;5040199;28;20041;-62
2022/11/25 05:02:18;;;;;;;16.42;5.05;;;8.30;99.90;;;;;;5058363;28;20102;-62
2022/11/25 05:04:45;;;;;;;16.98;5.40;;;8.30;99.90;;;;;;5052962;28;20048;-62
2022/11/25 05:07:12;;;;;;;20.15;5.50;;;8.30;99.90;;;;;;5055021;28;20354;-62
2022/11/25 05:09:38;;;;;;;13.23;4.55;;;8.30;99.90;;;;;;5036077;28;20033;-62
2022/11/25 05:12:06;;;;;;;19.25;4.88;;;8.40;99.90;;;;;;5055201;28;20052;-62
2022/11/25 05:14:31;;;;;;;18.42;5.78;;;8.40;99.90;;;;;;5057679;28;20059;-62
2022/11/25 05:16:57;;;;;;;14.23;5.05;;;8.40;99.90;;;;;;5055906;28;20306;-62
2022/11/25 05:19:23;;;;;;;15.60;5.15;;;8.40;99.90;;;;;;5041832;28;20119;-62
2022/11/25 05:21:48;;;;;;;16.50;5.25;;;8.40;99.90;;;;;;5053472;28;20534;-62
2022/11/25 05:24:14;;;;;;;17.88;5.78;;;8.40;99.90;;;;;;5057496;28;20105;-61
2022/11/25 05:26:39;;;;;;;14.70;4.80;;;8.40;99.90;;;;;;5038904;28;20040;-62
2022/11/25 05:29:05;;;;;;;15.80;5.25;;;8.40;99.90;;;;;;5055671;28;20105;-62
2022/11/25 05:31:30;;;;;;;18.38;5.15;;;8.50;99.90;;;;;;5053993;28;20151;-62
2022/11/25 05:34:00;;;;;;;14.77;4.97;;;8.40;99.90;;;;;;5052790;28;20028;-62
2022/11/25 05:36:26;;;;;;;19.83;5.50;;;8.50;99.90;;;;;;5056979;28;20143;-63
2022/11/25 05:38:51;;;;;;;14.55;5.57;;;8.40;99.90;;;;;;5038501;28;20487;-62
2022/11/25 05:41:17;;;;;;;13.63;4.88;;;8.50;99.90;;;;;;5057065;28;20135;-62
2022/11/25 05:43:43;;;;;;;14.07;5.13;;;8.50;99.90;;;;;;5037617;28;20053;-63
2022/11/25 05:46:09;;;;;;;16.60;5.00;;;8.40;99.90;;;;;;5050481;28;20097;-63
2022/11/25 05:48:34;;;;;;;14.90;5.20;;;8.40;99.90;;;;;;5031891;28;20421;-62
2022/11/25 05:51:01;;;;;;;18.08;5.43;;;8.50;99.90;;;;;;5048249;28;20036;-62
2022/11/25 05:53:27;;;;;;;20.00;5.75;;;8.50;99.90;;;;;;5020212;28;20038;-62
2022/11/25 05:55:58;;;;;;;16.13;5.35;;;8.40;99.90;;;;;;5056169;28;20075;-63
2022/11/25 05:58:23;;;;;;;13.30;5.00;;;8.40;99.90;;;;;;5055898;28;20419;-62
2022/11/25 06:00:49;;;;;;;19.80;5.50;;;8.50;99.90;;;;;;5055808;28;20025;-63
2022/11/25 06:03:16;;;;;;;15.50;5.22;;;8.50;99.90;;;;;;5051569;28;20299;-63
2022/11/25 06:05:42;;;;;;;17.33;5.13;;;8.50;99.90;;;;;;5049731;28;20364;-63
2022/11/25 06:08:08;;;;;;;16.05;5.20;;;8.50;99.90;;;;;;5035748;28;20036;-62
2022/11/25 06:10:36;;;;;;;14.68;4.57;;;8.50;99.90;;;;;;5056567;28;20036;-63
2022/11/25 06:13:02;;;;;;;12.13;4.70;;;8.50;99.90;;;;;;5055715;28;20048;-62
2022/11/25 06:15:27;;;;;;;15.43;4.78;;;8.50;99.90;;;;;;5038018;28;20454;-61
2022/11/25 06:17:54;;;;;;;14.98;4.78;;;8.40;99.90;;;;;;5057066;28;20044;-63
2022/11/25 06:20:19;;;;;;;16.20;4.80;;;8.40;99.90;;;;;;5028753;28;20045;-63
2022/11/25 06:22:45;;;;;;;14.32;4.88;;;8.40;99.90;;;;;;5042585;28;20651;-63
2022/11/25 06:25:11;;;;;;;13.57;4.10;;;8.30;99.90;;;;;;5019499;28;20072;-62
2022/11/25 06:27:36;;;;;;;16.27;5.00;;;8.20;99.90;;;;;;5058369;28;20136;-63
2022/11/25 06:30:02;;;;;;;17.55;5.10;;;8.20;99.90;;;;;;5037636;28;20048;-62
2022/11/25 06:32:28;;;;;;;14.15;4.60;;;8.20;99.90;;;;;;5054691;28;20392;-62
2022/11/25 06:34:53;;;;;;;12.77;4.32;;;8.10;99.90;;;;;;5037450;28;20099;-63
2022/11/25 06:37:19;;;;;;;14.45;4.97;;;8.00;99.90;;;;;;5041580;28;20037;-63
2022/11/25 06:39:44;;;;;;;14.52;4.65;;;8.00;99.90;;;;;;5040120;28;20037;-63
2022/11/25 06:42:10;;;;;;;14.93;4.43;;;8.00;99.90;;;;;;5056262;28;20083;-62
2022/11/25 06:44:36;;;;;;;9.57;4.25;;;8.00;99.90;;;;;;5055390;28;20036;-64
2022/11/25 06:47:01;;;;;;;14.57;4.72;;;7.90;99.90;;;;;;5061765;28;20076;-63
2022/11/25 06:49:28;;;;;;;13.02;4.35;;;7.90;99.90;;;;;;5056032;28;20086;-63
2022/11/25 06:51:53;;;;;;;16.25;5.20;;;7.80;99.90;;;;;;5052271;28;20056;-64
2022/11/25 06:54:19;;;;;;;14.63;4.63;;;7.80;99.90;;;;;;5057513;28;20047;-65
2022/11/25 06:56:50;;;;;;;13.70;3.47;;;7.80;99.90;;;;;;5056082;28;20144;-64
2022/11/25 06:59:17;;;;;;;14.73;4.47;;;7.70;99.90;;;;;;5061162;28;20101;-65
2022/11/25 07:01:42;;;;;;;12.70;4.28;;;7.60;99.90;;;;;;5041494;28;20041;-62
2022/11/25 07:04:08;;;;;;;18.88;5.03;;;7.60;99.90;;;;;;5057943;28;20296;-63
2022/11/25 07:06:34;;;;;;;13.15;4.43;;;7.60;99.90;;;;;;5021601;28;20109;-63
2022/11/25 07:09:00;;;;;;;13.27;4.55;;;7.60;99.90;;;;;;5059814;28;20029;-61
2022/11/25 07:11:28;;;;;;;15.50;4.63;;;7.60;99.90;;;;;;5039372;28;20052;-63
2022/11/25 07:13:57;;;;;;;11.55;3.63;;;7.60;99.90;;;;;;5060952;28;20404;-63
2022/11/25 07:16:23;;;;;;;13.23;4.57;;;7.50;99.90;;;;;;5066361;28;20113;-63
2022/11/25 07:18:48;;;;;;;13.93;4.43;;;7.50;99.90;;;;;;5064830;28;20051;-62
2022/11/25 07:21:17;;;;;;;13.75;4.78;;;7.50;99.90;;;;;;5054138;28;20037;-64
2022/11/25 07:23:44;;;;;;;13.45;3.65;;;7.50;99.90;;;;;;5055898;28;20454;-63
2022/11/25 07:26:26;;;;;;;14.50;4.97;;;7.50;99.90;;;;;;5041910;28;20040;-63
2022/11/25 07:28:53;;;;;;;14.27;4.90;;;7.60;99.90;;;;;;5057929;28;20121;-63
2022/11/25 07:31:38;;;;;;;12.85;4.60;;;7.60;99.90;;;;;;5038208;28;20036;-64
2022/11/25 07:34:13;;;;;;;13.18;4.15;;;7.50;99.90;;;;;;5054825;28;20044;-64
2022/11/25 07:36:39;;;;;;;11.25;4.22;;;7.50;99.90;;;;;;5057305;28;20029;-64
2022/11/25 07:39:08;;;;;;;9.80;4.18;;;7.50;99.90;;;;;;5057522;28;20052;-64
2022/11/25 07:41:34;;;;;;;9.23;4.07;;;7.50;99.90;;;;;;5037942;28;20063;-63
2022/11/25 07:44:02;;;;;;;11.77;4.10;;;7.60;99.90;;;;;;5056692;28;20131;-66
2022/11/25 07:46:30;;;;;;;11.55;4.60;;;7.50;99.90;;;;;;5055194;28;20041;-64
2022/11/25 07:48:57;;;;;;;9.75;3.28;;;7.50;99.90;;;;;;5055438;28;20051;-63
2022/11/25 07:51:26;;;;;;;13.00;4.13;;;7.50;99.90;;;;;;5056290;28;20120;-63
2022/11/25 07:53:54;;;;;;;10.13;4.38;;;7.50;99.90;;;;;;5057298;28;20043;-63
2022/11/25 07:56:20;;;;;;;16.30;5.00;;;7.50;99.90;;;;;;5053089;28;20397;-65
2022/11/25 07:58:46;;;;;;;15.05;4.50;;;7.60;99.90;;;;;;5053684;28;20324;-63
2022/11/25 08:01:14;;;;;;;10.18;3.92;;;7.70;99.90;;;;;;5057045;28;20051;-63
2022/11/25 08:03:42;;;;;;;9.10;4.15;;;7.70;99.90;;;;;;5054722;28;20190;-63
2022/11/25 08:06:11;;;;;;;10.90;3.83;;;7.70;99.90;;;;;;5057981;28;20166;-64
2022/11/25 08:08:37;;;;;;;13.02;4.60;;;7.70;99.90;;;;;;5055872;28;20075;-63
2022/11/25 08:11:11;;;;;;;9.63;4.63;;;7.80;99.90;;;;;;5056744;28;20037;-64
2022/11/25 08:13:37;;;;;;;9.75;4.18;;;7.80;99.90;;;;;;5056779;28;20413;-63
2022/11/25 08:16:04;;;;;;;12.05;4.50;;;7.90;99.90;;;;;;5057843;28;20052;-64
2022/11/25 08:18:30;;;;;;;10.75;4.60;;;7.90;99.90;;;;;;5056589;28;20033;-63
2022/11/25 08:21:00;;;;;;;14.70;4.80;;;7.90;99.90;;;;;;5044113;28;20037;-63
2022/11/25 08:23:26;;;;;;;12.48;4.78;;;8.00;99.90;;;;;;5052647;28;20036;-63
2022/11/25 08:25:52;;;;;;;9.65;4.50;;;8.00;99.90;;;;;;5059055;28;20038;-63
2022/11/25 08:28:17;;;;;;;11.60;3.88;;;7.90;99.90;;;;;;5055261;28;20516;-63
2022/11/25 08:30:43;;;;;;;9.25;4.13;;;8.00;99.90;;;;;;5036394;28;20131;-63
2022/11/25 08:33:09;;;;;;;10.05;4.65;;;8.00;99.90;;;;;;5041734;28;20339;-64
2022/11/25 08:35:37;;;;;;;12.38;3.78;;;8.00;99.90;;;;;;5056728;28;20107;-64
2022/11/25 08:38:07;;;;;;;10.82;4.28;;;8.00;99.90;;;;;;5058347;28;20047;-64
2022/11/25 08:40:34;;;;;;;10.35;4.80;;;8.00;99.90;;;;;;5058756;28;20159;-63
2022/11/25 08:43:01;;;;;;;7.82;4.15;;;8.00;99.90;;;;;;5054351;28;20041;-63
2022/11/25 08:45:27;;;;;;;14.80;5.40;;;8.10;99.90;;;;;;5057858;28;20071;-63
2022/11/25 08:47:53;;;;;;;13.65;4.72;;;8.10;99.90;;;;;;5053327;28;20564;-63
2022/11/25 08:50:19;;;;;;;11.63;4.85;;;8.20;99.90;;;;;;5056200;28;20234;-64
2022/11/25 08:52:45;;;;;;;11.43;4.70;;;8.20;99.90;;;;;;5055386;28;20042;-63
2022/11/25 08:55:11;;;;;;;10.90;4.72;;;8.30;99.90;;;;;;5052925;28;20071;-63
2022/11/25 08:57:37;;;;;;;10.20;4.38;;;8.30;99.90;;;;;;5057122;28;20163;-64
2022/11/25 09:00:05;;;;;;;8.85;4.75;;;8.40;99.90;;;;;;5057714;28;20052;-64
2022/11/25 09:02:31;;;;;;;11.80;5.13;;;8.40;99.90;;;;;;5060013;28;20374;-63
2022/11/25 09:04:57;;;;;;;9.77;4.68;;;8.40;99.90;;;;;;5052791;28;20037;-63
2022/11/25 09:07:22;;;;;;;9.75;5.22;;;8.40;99.90;;;;;;5056917;28;20060;-63
2022/11/25 09:09:48;;;;;;;9.45;5.00;;;8.50;99.90;;;;;;5055323;28;20435;-63
2022/11/25 09:12:14;;;;;;;10.55;5.03;;;8.60;99.90;;;;;;5055682;28;20470;-63
2022/11/25 09:14:40;;;;;;;10.48;4.68;;;8.70;99.90;;;;;;5057470;28;20134;-63
2022/11/25 09:17:10;;;;;;;9.45;4.65;;;8.70;99.90;;;;;;5039405;28;20087;-63
2022/11/25 09:19:36;;;;;;;9.88;4.78;;;8.80;99.90;;;;;;5057573;28;20033;-64
2022/11/25 09:22:02;;;;;;;10.23;4.38;;;8.80;99.90;;;;;;5052336;28;20041;-63
2022/11/25 09:24:28;;;;;;;10.80;4.60;;;8.90;99.90;;;;;;5056210;28;20499;-62
2022/11/25 09:26:53;;;;;;;9.90;4.05;;;9.00;99.90;;;;;;5057173;28;20048;-64
2022/11/25 09:29:19;;;;;;;8.13;4.47;;;9.00;99.90;;;;;;5055138;28;20451;-64
2022/11/25 09:31:45;;;;;;;8.93;4.40;;;9.10;99.90;;;;;;5055933;28;20547;-63
2022/11/25 09:34:10;;;;;;;13.80;4.82;;;9.20;99.90;;;;;;5034122;28;20033;-62
2022/11/25 09:36:36;;;;;;;11.65;4.22;;;9.20;99.90;;;;;;5056670;28;20029;-64
2022/11/25 09:39:02;;;;;;;8.60;4.18;;;9.20;99.90;;;;;;5057509;28;20151;-63
2022/11/25 09:48:09;;;;;;;10.60;3.88;;;9.40;99.90;;;;;;5049265;28;20437;-64
2022/11/25 09:50:38;;;;;;;7.43;3.25;;;9.40;99.90;;;;;;5055235;28;20044;-63
2022/11/25 09:53:14;;;;;;;8.20;3.40;;;9.50;99.90;;;;;;5052876;28;20029;-63
2022/11/25 09:55:44;;;;;;;10.60;3.63;;;9.50;99.90;;;;;;5035295;28;20103;-62
2022/11/25 09:58:24;;;;;;;8.65;3.60;;;9.50;99.90;;;;;;5058044;28;20045;-63
2022/11/25 10:00:52;;;;;;;8.15;3.28;;;9.60;99.90;;;;;;5059563;28;20041;-63
2022/11/25 10:03:41;;;;;;;7.70;3.80;;;9.60;99.90;;;;;;5055689;28;20038;-63
2022/11/25 10:06:09;;;;;;;10.52;4.10;;;9.60;99.90;;;;;;5044860;28;20070;-64
2022/11/25 10:08:42;;;;;;;9.60;3.92;;;9.70;99.90;;;;;;5058865;28;20546;-64
2022/11/25 10:11:24;;;;;;;9.02;3.78;;;9.70;99.90;;;;;;5059956;28;20076;-64
2022/11/25 10:14:11;;;;;;;8.07;3.83;;;9.70;99.90;;;;;;5059633;28;20321;-64
2022/11/25 10:16:45;;;;;;;10.15;3.90;;;9.80;99.90;;;;;;5059002;28;20036;-63
2022/11/25 10:19:29;;;;;;;10.30;4.05;;;9.80;99.90;;;;;;5061533;28;20051;-62
2022/11/25 10:21:55;;;;;;;10.13;4.03;;;9.80;99.90;;;;;;5035182;28;20120;-62
2022/11/25 10:24:21;;;;;;;8.68;4.07;;;9.80;99.90;;;;;;5061661;28;20190;-63
2022/11/25 10:26:59;;;;;;;11.43;3.88;;;9.80;99.90;;;;;;5060630;28;20059;-64
2022/11/25 10:29:30;;;;;;;9.70;3.70;;;9.90;99.90;;;;;;5055290;28;20064;-63
2022/11/25 10:32:20;;;;;;;10.90;4.07;;;10.00;99.90;;;;;;5058436;28;20082;-64
2022/11/25 10:34:52;;;;;;;10.82;4.40;;;10.00;99.90;;;;;;5055166;28;20067;-64
2022/11/25 10:37:38;;;;;;;8.98;3.80;;;10.10;99.90;;;;;;5059089;28;20037;-63
2022/11/25 10:40:05;;;;;;;9.45;3.95;;;10.20;99.90;;;;;;5055063;28;20462;-62
2022/11/25 10:42:31;;;;;;;11.85;4.15;;;10.20;99.90;;;;;;5059964;28;20052;-63
2022/11/25 10:44:57;;;;;;;9.52;3.83;;;10.20;99.90;;;;;;5058262;28;20059;-63
2022/11/25 10:47:25;;;;;;;8.80;3.70;;;10.20;99.90;;;;;;5055596;28;20508;-63
2022/11/25 10:52:33;;;;;;;8.75;3.45;;;10.30;99.90;;;;;;5382797;23;20069;-60
2022/11/25 10:55:26;;;;;;;8.70;3.70;;;10.30;99.90;;;;;;5015861;28;20141;-60
2022/11/25 10:57:53;;;;;;;12.73;3.97;;;10.30;99.90;;;;;;4996784;28;20037;-61
2022/11/25 11:00:28;;;;;;;9.55;4.07;;;10.30;99.90;;;;;;5007295;28;20183;-63
2022/11/25 11:02:54;;;;;;;11.27;3.20;;;10.40;99.90;;;;;;5013677;28;20445;-63
2022/11/25 11:05:29;;;;;;;11.02;4.40;;;10.40;99.90;;;;;;4995239;28;20041;-63
2022/11/25 11:08:26;;;;;;;11.57;3.67;;;10.40;99.90;;;;;;4992164;28;20034;-64
2022/11/25 11:11:11;;;;;;;9.43;3.80;;;10.40;99.90;;;;;;5012452;28;20343;-62
2022/11/25 11:13:37;;;;;;;10.85;3.53;;;10.40;99.90;;;;;;4994589;28;20060;-64
2022/11/25 11:16:19;;;;;;;9.10;3.53;;;10.40;99.90;;;;;;4994881;28;20081;-64
2022/11/25 11:18:44;;;;;;;10.68;3.90;;;10.50;99.90;;;;;;4993985;28;20042;-64
2022/11/25 11:21:34;;;;;;;8.68;3.40;;;10.50;99.90;;;;;;5012110;28;20050;-63
2022/11/25 11:24:03;;;;;;;8.48;3.17;;;10.60;99.90;;;;;;4982736;28;20104;-63
2022/11/25 11:26:30;;;;;;;9.73;3.70;;;10.50;99.90;;;;;;5001496;28;20129;-63
2022/11/25 11:28:58;;;;;;;9.02;3.55;;;10.50;99.90;;;;;;5011781;28;20064;-64
2022/11/25 11:31:38;;;;;;;8.85;3.42;;;10.60;99.90;;;;;;5012085;28;20108;-63
2022/11/25 11:34:25;;;;;;;10.55;3.50;;;10.60;99.90;;;;;;4994119;28;20038;-65
2022/11/25 11:37:18;;;;;;;13.10;3.70;;;10.60;99.90;;;;;;4986035;28;20034;-62
2022/11/25 11:39:59;;;;;;;11.23;3.70;;;10.60;99.90;;;;;;5011858;28;20076;-63
2022/11/25 11:42:48;;;;;;;10.77;3.63;;;10.60;99.90;;;;;;4988972;28;20041;-63
2022/11/25 11:45:32;;;;;;;12.38;3.60;;;10.60;99.90;;;;;;5012078;28;20135;-64
2022/11/25 11:48:28;;;;;;;11.73;3.95;;;10.60;99.90;;;;;;4984384;28;20044;-64
2022/11/25 11:51:13;;;;;;;10.63;3.78;;;10.60;99.90;;;;;;5003319;28;20050;-63
2022/11/25 11:54:05;;;;;;;13.85;3.92;;;10.70;99.90;;;;;;5013232;28;20371;-63
2022/11/25 11:56:55;;;;;;;11.20;3.97;;;10.70;99.90;;;;;;5012212;28;20045;-64
2022/11/25 11:59:41;;;;;;;13.88;3.72;;;10.80;99.90;;;;;;5001616;28;20564;-61
2022/11/25 12:02:20;;;;;;;13.65;3.90;;;10.80;99.90;;;;;;4998838;28;20042;-63
2022/11/25 12:04:57;;;;;;;12.23;3.60;;;10.80;99.90;;;;;;5011694;28;20075;-63
2022/11/25 12:07:46;;;;;;;9.30;3.40;;;10.90;99.90;;;;;;5011820;28;20045;-64
2022/11/25 12:10:14;;;;;;;11.05;3.60;;;10.90;99.90;;;;;;5012101;28;20046;-62
2022/11/25 12:12:59;;;;;;;11.40;3.65;;;10.90;99.90;;;;;;5013022;28;20057;-62
2022/11/25 12:15:46;;;;;;;11.40;3.67;;;10.90;99.90;;;;;;5013015;28;20124;-62
2022/11/25 12:18:38;;;;;;;10.10;3.47;;;10.90;99.90;;;;;;5013208;28;20116;-62
2022/11/25 12:21:12;;;;;;;13.05;3.42;;;10.90;99.90;;;;;;5013113;28;20038;-62
2022/11/25 12:23:41;;;;;;;;;;;10.90;99.90;;;;;;5013312;28;20045;-62
2022/11/25 12:26:34;;;;;;;9.82;3.42;;;10.90;99.90;;;;;;5012680;28;20404;-63
2022/11/25 12:29:25;;;;;;;14.13;3.92;;;10.90;99.90;;;;;;5010664;28;20049;-62
2022/11/25 12:32:01;;;;;;;15.52;3.67;;;11.00;99.90;;;;;;5010290;28;20034;-63
2022/11/25 12:34:33;;;;;;;13.00;3.67;;;11.10;99.90;;;;;;5002345;28;20108;-62
2022/11/25 12:37:09;;;;;;;13.80;3.97;;;11.10;99.90;;;;;;5012951;28;20042;-64
2022/11/25 12:40:03;;;;;;;15.32;3.88;;;11.10;99.90;;;;;;5012939;28;20041;-62
2022/11/25 12:42:31;;;;;;;17.13;4.47;;;11.10;99.90;;;;;;5012557;28;20137;-61
2022/11/25 12:45:06;;;;;;;12.38;3.30;;;11.10;99.90;;;;;;5011327;28;20053;-62
2022/11/25 12:47:32;;;;;;;13.90;3.85;;;11.20;99.90;;;;;;5012235;28;20037;-62
2022/11/25 12:49:58;;;;;;;11.65;3.67;;;11.20;99.90;;;;;;5012599;28;20052;-61
2022/11/25 12:52:58;;;;;;;12.40;3.30;;;11.20;99.90;;;;;;5010887;28;20363;-64
2022/11/25 12:55:26;;;;;;;9.98;2.88;;;11.30;99.90;;;;;;5007020;28;20318;-62
2022/11/25 12:58:14;;;;;;;12.80;2.78;;;11.40;99.90;;;;;;5012064;28;20060;-62
2022/11/25 13:01:11;;;;;;;10.98;3.55;;;11.30;99.90;;;;;;5008075;28;20049;-61
2022/11/25 13:03:49;;;;;;;11.75;3.63;;;11.30;99.90;;;;;;4978211;28;20397;-63
2022/11/25 13:06:49;;;;;;;14.30;3.25;;;11.40;99.90;;;;;;5012135;28;20065;-63
2022/11/25 13:09:29;;;;;;;17.95;3.50;;;11.40;99.90;;;;;;5002067;28;20059;-61
2022/11/25 13:11:55;;;;;;;16.35;3.78;;;11.50;99.90;;;;;;5011602;28;20042;-65
2022/11/25 13:14:46;;;;;;;13.50;3.42;;;11.50;99.90;;;;;;5011548;28;20048;-62